sensor_id;sensor_type;location;lat;lon;timestamp;P1;durP1;ratioP1;P2;durP2;ratioP2
14858;SDS011;7521;51.700;6.874;2023-03-31T00:01:12;5.67;;;1.50;;
14858;SDS011;7521;51.700;6.874;2023-03-31T00:04:18;8.77;;;1.70;;
14858;SDS011;7521;51.700;6.874;2023-03-31T00:07:27;5.07;;;1.40;;
14858;SDS011;7521;51.700;6.874;2023-03-31T00:10:33;8.68;;;1.98;;
14858;SDS011;7521;51.700;6.874;2023-03-31T00:13:38;6.30;;;1.70;;
14858;SDS011;7521;51.700;6.874;2023-03-31T00:16:44;5.30;;;1.87;;
14858;SDS011;7521;51.700;6.874;2023-03-31T00:19:49;7.17;;;2.40;;
14858;SDS011;7521;51.700;6.874;2023-03-31T00:22:54;7.93;;;1.93;;
14858;SDS011;7521;51.700;6.874;2023-03-31T00:26:01;7.17;;;1.83;;
14858;SDS011;7521;51.700;6.874;2023-03-31T00:29:07;7.57;;;1.90;;
14858;SDS011;7521;51.700;6.874;2023-03-31T00:32:12;7.93;;;2.60;;
14858;SDS011;7521;51.700;6.874;2023-03-31T00:35:18;9.37;;;2.80;;
14858;SDS011;7521;51.700;6.874;2023-03-31T00:38:23;10.82;;;3.00;;
14858;SDS011;7521;51.700;6.874;2023-03-31T00:41:28;7.47;;;2.92;;
14858;SDS011;7521;51.700;6.874;2023-03-31T00:44:34;8.83;;;2.70;;
14858;SDS011;7521;51.700;6.874;2023-03-31T00:47:40;8.30;;;2.87;;
14858;SDS011;7521;51.700;6.874;2023-03-31T00:50:48;8.53;;;2.80;;
14858;SDS011;7521;51.700;6.874;2023-03-31T00:53:56;11.70;;;3.17;;
14858;SDS011;7521;51.700;6.874;2023-03-31T00:57:03;12.93;;;3.40;;
14858;SDS011;7521;51.700;6.874;2023-03-31T01:00:10;7.57;;;2.63;;
14858;SDS011;7521;51.700;6.874;2023-03-31T01:03:19;13.07;;;2.90;;
14858;SDS011;7521;51.700;6.874;2023-03-31T01:06:26;8.80;;;2.87;;
14858;SDS011;7521;51.700;6.874;2023-03-31T01:09:34;9.43;;;2.70;;
14858;SDS011;7521;51.700;6.874;2023-03-31T01:12:43;9.10;;;2.30;;
14858;SDS011;7521;51.700;6.874;2023-03-31T01:15:49;7.53;;;2.50;;
14858;SDS011;7521;51.700;6.874;2023-03-31T01:18:55;9.17;;;3.10;;
14858;SDS011;7521;51.700;6.874;2023-03-31T01:22:09;11.67;;;2.40;;
14858;SDS011;7521;51.700;6.874;2023-03-31T01:25:42;9.43;;;2.93;;
14858;SDS011;7521;51.700;6.874;2023-03-31T01:32:03;11.05;;;2.75;;
14858;SDS011;7521;51.700;6.874;2023-03-31T01:48:38;8.37;;;2.43;;
14858;SDS011;7521;51.700;6.874;2023-03-31T01:51:51;6.60;;;2.17;;
14858;SDS011;7521;51.700;6.874;2023-03-31T01:55:03;7.90;;;2.23;;
14858;SDS011;7521;51.700;6.874;2023-03-31T01:58:15;5.33;;;1.50;;
14858;SDS011;7521;51.700;6.874;2023-03-31T02:01:25;6.13;;;1.70;;
14858;SDS011;7521;51.700;6.874;2023-03-31T02:04:32;10.63;;;2.73;;
14858;SDS011;7521;51.700;6.874;2023-03-31T02:08:02;10.47;;;2.63;;
14858;SDS011;7521;51.700;6.874;2023-03-31T02:11:04;9.47;;;2.77;;
14858;SDS011;7521;51.700;6.874;2023-03-31T02:14:10;9.50;;;2.63;;
14858;SDS011;7521;51.700;6.874;2023-03-31T02:17:17;5.77;;;2.20;;
14858;SDS011;7521;51.700;6.874;2023-03-31T02:20:23;9.27;;;2.80;;
14858;SDS011;7521;51.700;6.874;2023-03-31T02:23:29;9.13;;;2.30;;
14858;SDS011;7521;51.700;6.874;2023-03-31T02:26:36;7.07;;;2.50;;
14858;SDS011;7521;51.700;6.874;2023-03-31T02:29:43;8.17;;;2.83;;
14858;SDS011;7521;51.700;6.874;2023-03-31T02:32:49;10.77;;;3.40;;
14858;SDS011;7521;51.700;6.874;2023-03-31T02:35:54;10.63;;;3.38;;
14858;SDS011;7521;51.700;6.874;2023-03-31T02:39:04;8.13;;;3.30;;
14858;SDS011;7521;51.700;6.874;2023-03-31T02:42:11;9.23;;;3.47;;
14858;SDS011;7521;51.700;6.874;2023-03-31T02:45:38;12.90;;;4.53;;
14858;SDS011;7521;51.700;6.874;2023-03-31T02:48:46;9.40;;;4.27;;
14858;SDS011;7521;51.700;6.874;2023-03-31T02:55:17;10.35;;;4.60;;
14858;SDS011;7521;51.700;6.874;2023-03-31T03:05:08;10.80;;;3.70;;
14858;SDS011;7521;51.700;6.874;2023-03-31T03:08:19;9.43;;;3.30;;
14858;SDS011;7521;51.700;6.874;2023-03-31T03:14:58;9.37;;;2.80;;
14858;SDS011;7521;51.700;6.874;2023-03-31T03:18:04;11.67;;;3.87;;
14858;SDS011;7521;51.700;6.874;2023-03-31T03:21:10;10.30;;;3.13;;
14858;SDS011;7521;51.700;6.874;2023-03-31T03:24:15;15.20;;;3.55;;
14858;SDS011;7521;51.700;6.874;2023-03-31T03:27:21;14.77;;;3.60;;
14858;SDS011;7521;51.700;6.874;2023-03-31T03:30:27;15.77;;;4.23;;
14858;SDS011;7521;51.700;6.874;2023-03-31T03:33:32;9.80;;;3.13;;
14858;SDS011;7521;51.700;6.874;2023-03-31T03:36:37;12.18;;;4.25;;
14858;SDS011;7521;51.700;6.874;2023-03-31T03:39:43;13.93;;;4.03;;
14858;SDS011;7521;51.700;6.874;2023-03-31T03:42:48;14.85;;;4.00;;
14858;SDS011;7521;51.700;6.874;2023-03-31T03:45:53;12.43;;;4.25;;
14858;SDS011;7521;51.700;6.874;2023-03-31T03:48:58;12.95;;;3.90;;
14858;SDS011;7521;51.700;6.874;2023-03-31T03:52:03;11.63;;;4.18;;
14858;SDS011;7521;51.700;6.874;2023-03-31T03:55:09;11.23;;;3.87;;
14858;SDS011;7521;51.700;6.874;2023-03-31T03:58:16;15.67;;;4.33;;
14858;SDS011;7521;51.700;6.874;2023-03-31T04:01:21;11.57;;;3.40;;
14858;SDS011;7521;51.700;6.874;2023-03-31T04:04:26;11.23;;;3.43;;
14858;SDS011;7521;51.700;6.874;2023-03-31T04:07:31;18.67;;;3.95;;
14858;SDS011;7521;51.700;6.874;2023-03-31T04:10:36;13.40;;;3.90;;
14858;SDS011;7521;51.700;6.874;2023-03-31T04:13:42;16.53;;;4.73;;
14858;SDS011;7521;51.700;6.874;2023-03-31T04:16:47;12.13;;;4.17;;
14858;SDS011;7521;51.700;6.874;2023-03-31T04:19:52;15.90;;;3.35;;
14858;SDS011;7521;51.700;6.874;2023-03-31T04:22:58;14.20;;;3.22;;
14858;SDS011;7521;51.700;6.874;2023-03-31T04:26:03;15.82;;;3.17;;
14858;SDS011;7521;51.700;6.874;2023-03-31T04:29:13;15.97;;;3.47;;
14858;SDS011;7521;51.700;6.874;2023-03-31T04:32:20;17.27;;;3.93;;
14858;SDS011;7521;51.700;6.874;2023-03-31T04:35:27;15.43;;;3.50;;
14858;SDS011;7521;51.700;6.874;2023-03-31T04:38:43;11.47;;;3.33;;
14858;SDS011;7521;51.700;6.874;2023-03-31T04:41:51;10.87;;;3.67;;
14858;SDS011;7521;51.700;6.874;2023-03-31T04:44:56;13.13;;;2.80;;
14858;SDS011;7521;51.700;6.874;2023-03-31T04:48:01;14.25;;;2.92;;
14858;SDS011;7521;51.700;6.874;2023-03-31T04:51:06;14.35;;;3.55;;
14858;SDS011;7521;51.700;6.874;2023-03-31T04:54:13;12.70;;;3.93;;
14858;SDS011;7521;51.700;6.874;2023-03-31T04:57:18;14.30;;;3.20;;
14858;SDS011;7521;51.700;6.874;2023-03-31T05:00:23;19.27;;;3.67;;
14858;SDS011;7521;51.700;6.874;2023-03-31T05:03:29;13.73;;;3.50;;
14858;SDS011;7521;51.700;6.874;2023-03-31T05:06:34;13.47;;;3.53;;
14858;SDS011;7521;51.700;6.874;2023-03-31T05:09:39;18.43;;;3.63;;
14858;SDS011;7521;51.700;6.874;2023-03-31T05:12:44;14.80;;;3.42;;
14858;SDS011;7521;51.700;6.874;2023-03-31T05:15:50;14.17;;;3.07;;
14858;SDS011;7521;51.700;6.874;2023-03-31T05:18:55;13.90;;;2.70;;
14858;SDS011;7521;51.700;6.874;2023-03-31T05:22:00;13.68;;;3.10;;
14858;SDS011;7521;51.700;6.874;2023-03-31T05:25:06;12.50;;;2.57;;
14858;SDS011;7521;51.700;6.874;2023-03-31T05:28:12;7.83;;;2.37;;
14858;SDS011;7521;51.700;6.874;2023-03-31T05:31:17;12.68;;;2.97;;
14858;SDS011;7521;51.700;6.874;2023-03-31T05:34:22;9.43;;;2.57;;
14858;SDS011;7521;51.700;6.874;2023-03-31T05:37:27;10.88;;;2.83;;
14858;SDS011;7521;51.700;6.874;2023-03-31T05:40:33;8.63;;;2.63;;
14858;SDS011;7521;51.700;6.874;2023-03-31T05:43:38;8.50;;;2.60;;
14858;SDS011;7521;51.700;6.874;2023-03-31T05:46:43;7.67;;;1.93;;
14858;SDS011;7521;51.700;6.874;2023-03-31T05:49:48;13.53;;;2.87;;
14858;SDS011;7521;51.700;6.874;2023-03-31T05:52:53;9.00;;;2.28;;
14858;SDS011;7521;51.700;6.874;2023-03-31T05:55:59;10.50;;;2.13;;
14858;SDS011;7521;51.700;6.874;2023-03-31T05:59:05;9.63;;;2.33;;
14858;SDS011;7521;51.700;6.874;2023-03-31T06:02:14;7.53;;;2.50;;
14858;SDS011;7521;51.700;6.874;2023-03-31T06:05:19;6.97;;;1.87;;
14858;SDS011;7521;51.700;6.874;2023-03-31T06:08:24;8.00;;;1.90;;
14858;SDS011;7521;51.700;6.874;2023-03-31T06:11:30;5.32;;;2.17;;
14858;SDS011;7521;51.700;6.874;2023-03-31T06:14:35;6.03;;;1.53;;
14858;SDS011;7521;51.700;6.874;2023-03-31T06:17:40;7.32;;;1.70;;
14858;SDS011;7521;51.700;6.874;2023-03-31T06:20:45;7.83;;;1.67;;
14858;SDS011;7521;51.700;6.874;2023-03-31T06:23:53;4.82;;;1.50;;
14858;SDS011;7521;51.700;6.874;2023-03-31T06:27:00;6.95;;;1.95;;
14858;SDS011;7521;51.700;6.874;2023-03-31T06:30:05;7.27;;;1.90;;
14858;SDS011;7521;51.700;6.874;2023-03-31T06:33:10;8.63;;;1.57;;
14858;SDS011;7521;51.700;6.874;2023-03-31T06:36:16;11.07;;;1.95;;
14858;SDS011;7521;51.700;6.874;2023-03-31T06:39:22;4.17;;;1.30;;
14858;SDS011;7521;51.700;6.874;2023-03-31T06:42:28;6.87;;;1.77;;
14858;SDS011;7521;51.700;6.874;2023-03-31T06:45:35;4.37;;;1.70;;
14858;SDS011;7521;51.700;6.874;2023-03-31T06:48:40;5.23;;;1.73;;
14858;SDS011;7521;51.700;6.874;2023-03-31T06:51:45;5.47;;;1.87;;
14858;SDS011;7521;51.700;6.874;2023-03-31T06:54:51;6.15;;;1.75;;
14858;SDS011;7521;51.700;6.874;2023-03-31T06:57:56;8.88;;;1.75;;
14858;SDS011;7521;51.700;6.874;2023-03-31T07:01:02;5.38;;;2.00;;
14858;SDS011;7521;51.700;6.874;2023-03-31T07:04:07;6.17;;;1.73;;
14858;SDS011;7521;51.700;6.874;2023-03-31T07:07:12;6.97;;;1.77;;
14858;SDS011;7521;51.700;6.874;2023-03-31T07:10:17;6.35;;;1.52;;
14858;SDS011;7521;51.700;6.874;2023-03-31T07:13:22;9.20;;;2.17;;
14858;SDS011;7521;51.700;6.874;2023-03-31T07:16:28;9.17;;;2.13;;
14858;SDS011;7521;51.700;6.874;2023-03-31T07:19:33;6.00;;;1.95;;
14858;SDS011;7521;51.700;6.874;2023-03-31T07:22:45;7.40;;;2.00;;
14858;SDS011;7521;51.700;6.874;2023-03-31T07:25:50;8.07;;;2.17;;
14858;SDS011;7521;51.700;6.874;2023-03-31T07:28:55;9.20;;;2.38;;
14858;SDS011;7521;51.700;6.874;2023-03-31T07:32:01;7.97;;;2.17;;
14858;SDS011;7521;51.700;6.874;2023-03-31T07:35:06;5.50;;;1.92;;
14858;SDS011;7521;51.700;6.874;2023-03-31T07:38:12;6.67;;;1.90;;
14858;SDS011;7521;51.700;6.874;2023-03-31T07:41:18;12.07;;;2.67;;
14858;SDS011;7521;51.700;6.874;2023-03-31T07:44:23;4.97;;;2.23;;
14858;SDS011;7521;51.700;6.874;2023-03-31T07:47:28;7.07;;;2.13;;
14858;SDS011;7521;51.700;6.874;2023-03-31T07:50:34;10.60;;;2.40;;
14858;SDS011;7521;51.700;6.874;2023-03-31T07:53:39;7.90;;;2.33;;
14858;SDS011;7521;51.700;6.874;2023-03-31T07:56:44;8.40;;;2.20;;
14858;SDS011;7521;51.700;6.874;2023-03-31T07:59:50;9.10;;;2.40;;
14858;SDS011;7521;51.700;6.874;2023-03-31T08:02:55;7.85;;;2.45;;
14858;SDS011;7521;51.700;6.874;2023-03-31T08:06:00;5.28;;;2.10;;
14858;SDS011;7521;51.700;6.874;2023-03-31T08:09:05;6.43;;;1.93;;
14858;SDS011;7521;51.700;6.874;2023-03-31T08:12:13;7.63;;;2.03;;
14858;SDS011;7521;51.700;6.874;2023-03-31T08:15:19;6.10;;;2.33;;
14858;SDS011;7521;51.700;6.874;2023-03-31T08:18:24;6.80;;;2.67;;
14858;SDS011;7521;51.700;6.874;2023-03-31T08:21:29;10.20;;;2.25;;
14858;SDS011;7521;51.700;6.874;2023-03-31T08:24:35;3.37;;;1.80;;
14858;SDS011;7521;51.700;6.874;2023-03-31T08:27:41;8.85;;;2.60;;
14858;SDS011;7521;51.700;6.874;2023-03-31T08:30:46;7.40;;;2.17;;
14858;SDS011;7521;51.700;6.874;2023-03-31T08:33:52;8.20;;;2.40;;
14858;SDS011;7521;51.700;6.874;2023-03-31T08:36:57;6.85;;;2.20;;
14858;SDS011;7521;51.700;6.874;2023-03-31T08:40:05;7.17;;;2.60;;
14858;SDS011;7521;51.700;6.874;2023-03-31T08:43:15;8.37;;;2.50;;
14858;SDS011;7521;51.700;6.874;2023-03-31T08:46:26;9.47;;;2.70;;
14858;SDS011;7521;51.700;6.874;2023-03-31T08:49:36;8.30;;;2.73;;
14858;SDS011;7521;51.700;6.874;2023-03-31T08:52:51;8.43;;;2.23;;
14858;SDS011;7521;51.700;6.874;2023-03-31T08:55:58;9.33;;;2.60;;
14858;SDS011;7521;51.700;6.874;2023-03-31T08:59:05;10.33;;;2.87;;
14858;SDS011;7521;51.700;6.874;2023-03-31T09:05:58;7.37;;;2.60;;
14858;SDS011;7521;51.700;6.874;2023-03-31T09:09:06;8.57;;;2.57;;
14858;SDS011;7521;51.700;6.874;2023-03-31T09:12:15;11.53;;;2.50;;
14858;SDS011;7521;51.700;6.874;2023-03-31T09:15:28;9.00;;;2.70;;
14858;SDS011;7521;51.700;6.874;2023-03-31T09:18:35;7.70;;;2.63;;
14858;SDS011;7521;51.700;6.874;2023-03-31T09:21:42;11.70;;;2.77;;
14858;SDS011;7521;51.700;6.874;2023-03-31T09:24:53;9.10;;;2.50;;
14858;SDS011;7521;51.700;6.874;2023-03-31T09:27:59;8.70;;;2.87;;
14858;SDS011;7521;51.700;6.874;2023-03-31T09:31:10;10.77;;;3.20;;
14858;SDS011;7521;51.700;6.874;2023-03-31T09:34:29;9.97;;;3.00;;
14858;SDS011;7521;51.700;6.874;2023-03-31T09:37:35;14.00;;;3.80;;
14858;SDS011;7521;51.700;6.874;2023-03-31T09:40:40;11.80;;;3.63;;
14858;SDS011;7521;51.700;6.874;2023-03-31T09:43:46;17.77;;;3.23;;
14858;SDS011;7521;51.700;6.874;2023-03-31T09:46:53;11.27;;;3.47;;
14858;SDS011;7521;51.700;6.874;2023-03-31T09:49:59;12.03;;;3.60;;
14858;SDS011;7521;51.700;6.874;2023-03-31T09:53:04;15.60;;;3.42;;
14858;SDS011;7521;51.700;6.874;2023-03-31T09:56:09;13.23;;;3.60;;
14858;SDS011;7521;51.700;6.874;2023-03-31T09:59:16;17.03;;;4.70;;
14858;SDS011;7521;51.700;6.874;2023-03-31T10:02:26;19.27;;;4.50;;
14858;SDS011;7521;51.700;6.874;2023-03-31T10:05:50;9.10;;;3.37;;
14858;SDS011;7521;51.700;6.874;2023-03-31T10:08:56;13.60;;;3.87;;
14858;SDS011;7521;51.700;6.874;2023-03-31T10:12:04;13.87;;;3.67;;
14858;SDS011;7521;51.700;6.874;2023-03-31T10:15:14;13.53;;;3.57;;
14858;SDS011;7521;51.700;6.874;2023-03-31T10:18:30;13.33;;;3.73;;
14858;SDS011;7521;51.700;6.874;2023-03-31T10:21:36;16.23;;;3.03;;
14858;SDS011;7521;51.700;6.874;2023-03-31T10:24:43;13.07;;;2.53;;
14858;SDS011;7521;51.700;6.874;2023-03-31T10:27:51;10.17;;;2.00;;
14858;SDS011;7521;51.700;6.874;2023-03-31T10:30:59;7.00;;;1.67;;
14858;SDS011;7521;51.700;6.874;2023-03-31T10:34:08;10.70;;;2.27;;
14858;SDS011;7521;51.700;6.874;2023-03-31T10:37:17;7.00;;;2.10;;
14858;SDS011;7521;51.700;6.874;2023-03-31T10:40:24;8.53;;;2.10;;
14858;SDS011;7521;51.700;6.874;2023-03-31T10:43:35;14.23;;;2.63;;
14858;SDS011;7521;51.700;6.874;2023-03-31T10:49:49;10.60;;;2.40;;
14858;SDS011;7521;51.700;6.874;2023-03-31T10:53:03;11.70;;;2.63;;
14858;SDS011;7521;51.700;6.874;2023-03-31T11:06:09;10.17;;;2.60;;
14858;SDS011;7521;51.700;6.874;2023-03-31T11:12:57;8.30;;;2.30;;
14858;SDS011;7521;51.700;6.874;2023-03-31T11:26:12;10.97;;;2.27;;
14858;SDS011;7521;51.700;6.874;2023-03-31T11:29:22;11.20;;;2.70;;
14858;SDS011;7521;51.700;6.874;2023-03-31T11:45:38;9.47;;;2.00;;
14858;SDS011;7521;51.700;6.874;2023-03-31T11:48:57;6.67;;;2.10;;
14858;SDS011;7521;51.700;6.874;2023-03-31T11:52:09;6.33;;;1.63;;
14858;SDS011;7521;51.700;6.874;2023-03-31T11:55:18;6.53;;;1.90;;
14858;SDS011;7521;51.700;6.874;2023-03-31T11:58:27;5.90;;;1.40;;
14858;SDS011;7521;51.700;6.874;2023-03-31T12:04:42;7.00;;;1.70;;
14858;SDS011;7521;51.700;6.874;2023-03-31T12:07:57;8.10;;;2.10;;
14858;SDS011;7521;51.700;6.874;2023-03-31T12:11:10;7.23;;;1.57;;
14858;SDS011;7521;51.700;6.874;2023-03-31T12:14:26;8.77;;;1.70;;
14858;SDS011;7521;51.700;6.874;2023-03-31T12:17:31;4.67;;;1.50;;
14858;SDS011;7521;51.700;6.874;2023-03-31T12:20:41;7.10;;;1.67;;
14858;SDS011;7521;51.700;6.874;2023-03-31T12:23:48;5.83;;;1.57;;
14858;SDS011;7521;51.700;6.874;2023-03-31T12:30:30;7.07;;;1.60;;
14858;SDS011;7521;51.700;6.874;2023-03-31T12:33:39;8.80;;;2.10;;
14858;SDS011;7521;51.700;6.874;2023-03-31T12:40:30;7.93;;;2.33;;
14858;SDS011;7521;51.700;6.874;2023-03-31T12:50:30;12.27;;;2.60;;
14858;SDS011;7521;51.700;6.874;2023-03-31T12:53:42;11.57;;;2.40;;
14858;SDS011;7521;51.700;6.874;2023-03-31T13:00:14;6.97;;;2.43;;
14858;SDS011;7521;51.700;6.874;2023-03-31T13:06:50;6.57;;;1.70;;
14858;SDS011;7521;51.700;6.874;2023-03-31T13:09:56;8.13;;;1.97;;
14858;SDS011;7521;51.700;6.874;2023-03-31T13:13:05;8.07;;;2.57;;
14858;SDS011;7521;51.700;6.874;2023-03-31T13:16:18;9.47;;;2.30;;
14858;SDS011;7521;51.700;6.874;2023-03-31T13:19:28;6.77;;;2.00;;
14858;SDS011;7521;51.700;6.874;2023-03-31T13:22:35;7.40;;;1.93;;
14858;SDS011;7521;51.700;6.874;2023-03-31T13:28:46;10.23;;;2.40;;
14858;SDS011;7521;51.700;6.874;2023-03-31T13:35:24;7.50;;;2.00;;
14858;SDS011;7521;51.700;6.874;2023-03-31T13:38:42;11.20;;;2.50;;
14858;SDS011;7521;51.700;6.874;2023-03-31T13:41:55;6.73;;;1.83;;
14858;SDS011;7521;51.700;6.874;2023-03-31T13:45:09;5.63;;;1.70;;
14858;SDS011;7521;51.700;6.874;2023-03-31T13:48:33;9.23;;;2.03;;
14858;SDS011;7521;51.700;6.874;2023-03-31T14:08:09;10.43;;;1.80;;
14858;SDS011;7521;51.700;6.874;2023-03-31T14:14:30;4.70;;;1.23;;
14858;SDS011;7521;51.700;6.874;2023-03-31T14:17:36;6.70;;;2.03;;
14858;SDS011;7521;51.700;6.874;2023-03-31T14:20:47;5.30;;;1.53;;
14858;SDS011;7521;51.700;6.874;2023-03-31T14:24:07;5.63;;;1.50;;
14858;SDS011;7521;51.700;6.874;2023-03-31T14:37:16;12.57;;;2.30;;
14858;SDS011;7521;51.700;6.874;2023-03-31T14:40:21;6.37;;;1.60;;
14858;SDS011;7521;51.700;6.874;2023-03-31T14:43:34;6.43;;;1.73;;
14858;SDS011;7521;51.700;6.874;2023-03-31T14:46:40;12.13;;;2.73;;
14858;SDS011;7521;51.700;6.874;2023-03-31T14:49:45;5.67;;;1.60;;
14858;SDS011;7521;51.700;6.874;2023-03-31T14:52:51;5.83;;;1.50;;
14858;SDS011;7521;51.700;6.874;2023-03-31T14:56:01;8.07;;;1.83;;
14858;SDS011;7521;51.700;6.874;2023-03-31T14:59:08;4.80;;;1.43;;
14858;SDS011;7521;51.700;6.874;2023-03-31T15:02:17;5.67;;;1.67;;
14858;SDS011;7521;51.700;6.874;2023-03-31T15:08:28;9.53;;;1.90;;
14858;SDS011;7521;51.700;6.874;2023-03-31T15:11:35;7.30;;;1.70;;
14858;SDS011;7521;51.700;6.874;2023-03-31T15:14:50;6.35;;;1.73;;
14858;SDS011;7521;51.700;6.874;2023-03-31T15:17:55;5.27;;;1.67;;
14858;SDS011;7521;51.700;6.874;2023-03-31T15:21:00;4.50;;;1.42;;
14858;SDS011;7521;51.700;6.874;2023-03-31T15:24:06;4.70;;;1.20;;
14858;SDS011;7521;51.700;6.874;2023-03-31T15:30:26;5.53;;;1.20;;
14858;SDS011;7521;51.700;6.874;2023-03-31T15:33:33;6.70;;;1.90;;
14858;SDS011;7521;51.700;6.874;2023-03-31T15:36:40;3.37;;;1.27;;
14858;SDS011;7521;51.700;6.874;2023-03-31T15:39:46;4.90;;;1.20;;
14858;SDS011;7521;51.700;6.874;2023-03-31T15:42:53;5.50;;;1.60;;
14858;SDS011;7521;51.700;6.874;2023-03-31T15:46:00;5.30;;;1.20;;
14858;SDS011;7521;51.700;6.874;2023-03-31T15:49:10;3.97;;;1.10;;
14858;SDS011;7521;51.700;6.874;2023-03-31T15:52:28;2.57;;;0.90;;
14858;SDS011;7521;51.700;6.874;2023-03-31T15:55:41;5.03;;;1.10;;
14858;SDS011;7521;51.700;6.874;2023-03-31T16:01:52;6.47;;;1.60;;
14858;SDS011;7521;51.700;6.874;2023-03-31T16:04:58;7.07;;;1.40;;
14858;SDS011;7521;51.700;6.874;2023-03-31T16:08:03;3.93;;;0.73;;
14858;SDS011;7521;51.700;6.874;2023-03-31T16:11:11;4.27;;;1.13;;
14858;SDS011;7521;51.700;6.874;2023-03-31T16:17:39;4.83;;;1.30;;
14858;SDS011;7521;51.700;6.874;2023-03-31T16:20:51;4.83;;;1.10;;
14858;SDS011;7521;51.700;6.874;2023-03-31T16:23:57;3.43;;;1.00;;
14858;SDS011;7521;51.700;6.874;2023-03-31T16:27:03;4.00;;;1.23;;
14858;SDS011;7521;51.700;6.874;2023-03-31T16:30:17;4.53;;;1.00;;
14858;SDS011;7521;51.700;6.874;2023-03-31T16:33:23;3.13;;;1.10;;
14858;SDS011;7521;51.700;6.874;2023-03-31T16:36:28;6.97;;;1.40;;
14858;SDS011;7521;51.700;6.874;2023-03-31T16:39:34;5.03;;;1.02;;
14858;SDS011;7521;51.700;6.874;2023-03-31T16:42:39;3.73;;;1.37;;
14858;SDS011;7521;51.700;6.874;2023-03-31T16:45:45;4.45;;;1.25;;
14858;SDS011;7521;51.700;6.874;2023-03-31T16:48:51;6.67;;;1.20;;
14858;SDS011;7521;51.700;6.874;2023-03-31T16:51:56;5.20;;;1.13;;
14858;SDS011;7521;51.700;6.874;2023-03-31T16:55:01;4.00;;;1.10;;
14858;SDS011;7521;51.700;6.874;2023-03-31T16:58:07;6.33;;;1.00;;
14858;SDS011;7521;51.700;6.874;2023-03-31T17:01:12;2.50;;;0.80;;
14858;SDS011;7521;51.700;6.874;2023-03-31T17:04:18;4.10;;;1.07;;
14858;SDS011;7521;51.700;6.874;2023-03-31T17:07:24;5.13;;;1.30;;
14858;SDS011;7521;51.700;6.874;2023-03-31T17:10:29;3.80;;;1.20;;
14858;SDS011;7521;51.700;6.874;2023-03-31T17:13:35;4.13;;;0.93;;
14858;SDS011;7521;51.700;6.874;2023-03-31T17:16:40;4.27;;;1.63;;
14858;SDS011;7521;51.700;6.874;2023-03-31T17:19:46;2.97;;;0.93;;
14858;SDS011;7521;51.700;6.874;2023-03-31T17:22:52;4.95;;;2.05;;
14858;SDS011;7521;51.700;6.874;2023-03-31T17:25:57;4.43;;;1.47;;
14858;SDS011;7521;51.700;6.874;2023-03-31T17:29:03;2.90;;;0.77;;
14858;SDS011;7521;51.700;6.874;2023-03-31T17:32:08;2.10;;;0.90;;
14858;SDS011;7521;51.700;6.874;2023-03-31T17:35:15;2.90;;;1.20;;
14858;SDS011;7521;51.700;6.874;2023-03-31T17:38:26;4.57;;;1.63;;
14858;SDS011;7521;51.700;6.874;2023-03-31T17:41:31;3.88;;;0.90;;
14858;SDS011;7521;51.700;6.874;2023-03-31T17:44:36;2.37;;;0.70;;
14858;SDS011;7521;51.700;6.874;2023-03-31T17:47:42;4.05;;;0.70;;
14858;SDS011;7521;51.700;6.874;2023-03-31T17:50:48;3.40;;;1.07;;
14858;SDS011;7521;51.700;6.874;2023-03-31T17:53:54;2.60;;;0.70;;
14858;SDS011;7521;51.700;6.874;2023-03-31T17:57:00;2.07;;;0.70;;
14858;SDS011;7521;51.700;6.874;2023-03-31T18:00:05;1.83;;;0.77;;
14858;SDS011;7521;51.700;6.874;2023-03-31T18:03:12;3.00;;;1.00;;
14858;SDS011;7521;51.700;6.874;2023-03-31T18:06:18;1.92;;;0.65;;
14858;SDS011;7521;51.700;6.874;2023-03-31T18:09:23;2.88;;;1.10;;
14858;SDS011;7521;51.700;6.874;2023-03-31T18:12:29;2.63;;;1.00;;
14858;SDS011;7521;51.700;6.874;2023-03-31T18:15:34;2.75;;;1.00;;
14858;SDS011;7521;51.700;6.874;2023-03-31T18:18:39;5.67;;;1.40;;
14858;SDS011;7521;51.700;6.874;2023-03-31T18:21:45;2.53;;;1.03;;
14858;SDS011;7521;51.700;6.874;2023-03-31T18:24:50;3.30;;;1.50;;
14858;SDS011;7521;51.700;6.874;2023-03-31T18:27:55;5.10;;;1.30;;
14858;SDS011;7521;51.700;6.874;2023-03-31T18:31:04;4.27;;;1.30;;
14858;SDS011;7521;51.700;6.874;2023-03-31T18:34:09;2.87;;;1.47;;
14858;SDS011;7521;51.700;6.874;2023-03-31T18:37:17;3.13;;;1.30;;
14858;SDS011;7521;51.700;6.874;2023-03-31T18:40:22;3.07;;;0.93;;
14858;SDS011;7521;51.700;6.874;2023-03-31T18:43:27;4.00;;;1.27;;
14858;SDS011;7521;51.700;6.874;2023-03-31T18:46:32;2.92;;;1.10;;
14858;SDS011;7521;51.700;6.874;2023-03-31T18:49:38;3.38;;;0.93;;
14858;SDS011;7521;51.700;6.874;2023-03-31T18:52:43;2.85;;;1.23;;
14858;SDS011;7521;51.700;6.874;2023-03-31T18:55:52;4.45;;;1.20;;
14858;SDS011;7521;51.700;6.874;2023-03-31T18:58:57;2.97;;;1.10;;
14858;SDS011;7521;51.700;6.874;2023-03-31T19:02:03;4.37;;;0.93;;
14858;SDS011;7521;51.700;6.874;2023-03-31T19:05:08;3.57;;;1.33;;
14858;SDS011;7521;51.700;6.874;2023-03-31T19:08:13;3.30;;;0.93;;
14858;SDS011;7521;51.700;6.874;2023-03-31T19:11:19;4.93;;;1.35;;
14858;SDS011;7521;51.700;6.874;2023-03-31T19:14:24;8.47;;;1.60;;
14858;SDS011;7521;51.700;6.874;2023-03-31T19:17:29;3.28;;;1.08;;
14858;SDS011;7521;51.700;6.874;2023-03-31T19:20:35;5.50;;;1.13;;
14858;SDS011;7521;51.700;6.874;2023-03-31T19:23:40;5.00;;;1.17;;
14858;SDS011;7521;51.700;6.874;2023-03-31T19:26:45;5.38;;;1.42;;
14858;SDS011;7521;51.700;6.874;2023-03-31T19:29:51;6.37;;;1.20;;
14858;SDS011;7521;51.700;6.874;2023-03-31T19:32:56;5.20;;;1.60;;
14858;SDS011;7521;51.700;6.874;2023-03-31T19:36:04;7.53;;;1.93;;
14858;SDS011;7521;51.700;6.874;2023-03-31T19:39:10;5.80;;;1.57;;
14858;SDS011;7521;51.700;6.874;2023-03-31T19:42:15;4.27;;;1.47;;
14858;SDS011;7521;51.700;6.874;2023-03-31T19:45:20;3.23;;;1.27;;
14858;SDS011;7521;51.700;6.874;2023-03-31T19:48:26;4.85;;;1.02;;
14858;SDS011;7521;51.700;6.874;2023-03-31T19:51:32;9.00;;;1.23;;
14858;SDS011;7521;51.700;6.874;2023-03-31T19:54:37;4.03;;;1.25;;
14858;SDS011;7521;51.700;6.874;2023-03-31T19:57:42;2.30;;;0.90;;
14858;SDS011;7521;51.700;6.874;2023-03-31T20:00:49;3.35;;;1.17;;
14858;SDS011;7521;51.700;6.874;2023-03-31T20:03:54;5.10;;;0.80;;
14858;SDS011;7521;51.700;6.874;2023-03-31T20:07:00;3.53;;;0.97;;
14858;SDS011;7521;51.700;6.874;2023-03-31T20:10:05;4.97;;;1.10;;
14858;SDS011;7521;51.700;6.874;2023-03-31T20:13:11;4.80;;;0.90;;
14858;SDS011;7521;51.700;6.874;2023-03-31T20:16:18;4.27;;;1.20;;
14858;SDS011;7521;51.700;6.874;2023-03-31T20:19:26;6.00;;;1.30;;
14858;SDS011;7521;51.700;6.874;2023-03-31T20:22:31;4.57;;;0.97;;
14858;SDS011;7521;51.700;6.874;2023-03-31T20:25:37;4.37;;;1.03;;
14858;SDS011;7521;51.700;6.874;2023-03-31T20:28:42;4.97;;;1.20;;
14858;SDS011;7521;51.700;6.874;2023-03-31T20:31:47;4.03;;;1.30;;
14858;SDS011;7521;51.700;6.874;2023-03-31T20:34:54;4.77;;;1.13;;
14858;SDS011;7521;51.700;6.874;2023-03-31T20:37:59;4.85;;;1.38;;
14858;SDS011;7521;51.700;6.874;2023-03-31T20:41:04;5.47;;;1.47;;
14858;SDS011;7521;51.700;6.874;2023-03-31T20:44:10;3.17;;;1.17;;
14858;SDS011;7521;51.700;6.874;2023-03-31T20:47:18;3.53;;;1.20;;
14858;SDS011;7521;51.700;6.874;2023-03-31T20:50:23;4.07;;;1.57;;
14858;SDS011;7521;51.700;6.874;2023-03-31T20:53:29;6.83;;;1.50;;
14858;SDS011;7521;51.700;6.874;2023-03-31T20:56:35;5.03;;;1.30;;
14858;SDS011;7521;51.700;6.874;2023-03-31T20:59:41;3.67;;;1.10;;
14858;SDS011;7521;51.700;6.874;2023-03-31T21:02:49;5.37;;;1.60;;
14858;SDS011;7521;51.700;6.874;2023-03-31T21:05:54;2.70;;;1.43;;
14858;SDS011;7521;51.700;6.874;2023-03-31T21:09:02;7.20;;;1.57;;
14858;SDS011;7521;51.700;6.874;2023-03-31T21:12:08;7.17;;;1.80;;
14858;SDS011;7521;51.700;6.874;2023-03-31T21:15:20;6.50;;;1.90;;
14858;SDS011;7521;51.700;6.874;2023-03-31T21:18:29;5.57;;;1.50;;
14858;SDS011;7521;51.700;6.874;2023-03-31T21:21:37;9.97;;;1.70;;
14858;SDS011;7521;51.700;6.874;2023-03-31T21:24:45;6.83;;;1.50;;
14858;SDS011;7521;51.700;6.874;2023-03-31T21:27:50;6.00;;;1.23;;